createdAt,value
2023-01-06T00:49:55.116Z,1.36
2023-01-06T01:30:53.487Z,1.26
2023-01-06T01:31:53.425Z,0.95
2023-01-06T01:32:53.379Z,1.14
2023-01-06T01:33:53.348Z,1.28
2023-01-06T01:34:53.396Z,1.29
2023-01-06T01:35:53.269Z,1.19
2023-01-06T01:36:53.243Z,1.23
2023-01-06T01:37:53.204Z,0.90
2023-01-06T01:38:53.155Z,1.08
2023-01-06T01:39:53.118Z,1.13
2023-01-06T01:40:53.075Z,1.30
2023-01-06T01:41:53.037Z,1.28
2023-01-06T01:42:53.002Z,1.16
2023-01-06T01:43:52.949Z,1.56
2023-01-06T03:02:49.882Z,1.05
2023-01-06T03:05:49.743Z,0.76
2023-01-06T03:06:49.721Z,1.13
2023-01-06T03:07:49.699Z,1.33
2023-01-06T03:08:49.630Z,0.90
2023-01-06T03:09:49.595Z,1.04
2023-01-06T03:11:49.515Z,1.20
2023-01-06T03:12:49.471Z,0.82
2023-01-06T03:13:49.437Z,0.80
2023-01-06T03:14:49.384Z,1.04
2023-01-06T03:15:49.383Z,1.55
2023-01-06T03:16:49.317Z,0.92
2023-01-06T03:17:49.281Z,0.87
2023-01-06T03:18:49.237Z,0.93
2023-01-06T03:19:49.194Z,0.82
2023-01-06T03:20:49.152Z,0.63
2023-01-06T03:21:49.121Z,0.99
2023-01-06T03:22:49.060Z,0.80
2023-01-06T03:23:49.017Z,0.91
2023-01-06T03:24:48.975Z,0.80
2023-01-06T03:25:48.942Z,0.86
2023-01-06T03:26:48.990Z,1.00
2023-01-06T03:27:48.855Z,0.67
2023-01-06T03:28:48.807Z,0.87
2023-01-06T03:29:48.757Z,1.02
2023-01-06T03:30:48.723Z,0.76
2023-01-06T03:31:48.677Z,0.72
2023-01-06T03:32:48.628Z,0.69
2023-01-06T03:33:48.581Z,0.98
2023-01-06T03:34:48.540Z,0.87
2023-01-06T03:35:48.516Z,0.85
2023-01-06T03:36:48.468Z,0.67
2023-01-06T03:37:48.434Z,0.72
2023-01-06T03:38:48.402Z,0.70
2023-01-06T03:39:48.386Z,0.53
2023-01-06T03:40:48.363Z,0.68
2023-01-06T03:41:48.332Z,0.83
2023-01-06T03:42:48.372Z,0.65
2023-01-06T03:43:48.253Z,0.70
2023-01-06T03:44:48.223Z,0.71
2023-01-06T03:45:48.193Z,1.03
2023-01-06T03:46:48.189Z,1.16
2023-01-06T03:47:48.123Z,0.84
2023-01-06T03:48:48.101Z,0.61
2023-01-06T03:49:48.079Z,0.65
2023-01-06T03:50:48.037Z,0.81
2023-01-06T03:51:48.009Z,0.74
2023-01-06T03:53:47.982Z,0.73
2023-01-06T03:54:47.941Z,1.00
2023-01-06T03:55:47.953Z,0.89
2023-01-06T03:56:47.958Z,1.00
2023-01-06T03:57:47.840Z,0.73
2023-01-06T03:58:47.915Z,0.91
2023-01-06T03:59:47.771Z,0.76
2023-01-06T04:00:47.765Z,0.74
2023-01-06T04:01:47.771Z,1.05
2023-01-06T04:02:47.687Z,0.92
2023-01-06T04:03:47.767Z,0.93
2023-01-06T04:04:47.622Z,0.70
2023-01-06T04:05:47.593Z,0.97
2023-01-06T04:06:47.564Z,0.63
2023-01-06T04:07:47.552Z,0.93
2023-01-06T04:08:47.509Z,0.80
2023-01-06T04:09:47.495Z,0.64
2023-01-06T04:10:47.458Z,0.69
2023-01-06T04:11:47.412Z,0.70
2023-01-06T04:12:47.391Z,0.66
2023-01-06T04:13:47.348Z,0.63
2023-01-06T04:14:47.438Z,0.81
2023-01-06T04:15:47.303Z,0.88
2023-01-06T04:16:47.272Z,0.70
2023-01-06T04:17:47.252Z,0.89
2023-01-06T04:18:47.217Z,0.70
2023-01-06T04:19:47.192Z,0.59
2023-01-06T04:20:47.160Z,0.80
2023-01-06T04:21:47.139Z,0.92
2023-01-06T04:22:47.124Z,0.95
2023-01-06T04:23:47.088Z,0.63
2023-01-06T04:24:47.066Z,0.66
2023-01-06T04:25:47.036Z,0.78
2023-01-06T04:26:47.000Z,0.80
2023-01-06T04:27:47.005Z,0.61
2023-01-06T04:28:46.928Z,0.67
2023-01-06T04:29:46.911Z,0.80
2023-01-06T04:30:46.959Z,0.74
2023-01-06T04:31:46.903Z,0.63
2023-01-06T04:32:46.831Z,0.86
2023-01-06T04:33:46.791Z,1.11
2023-01-06T04:34:46.774Z,0.67
2023-01-06T04:35:46.745Z,0.70
2023-01-06T04:36:46.710Z,0.69
2023-01-06T04:37:46.676Z,0.80
2023-01-06T04:38:46.649Z,0.53
2023-01-06T04:39:46.625Z,0.64
2023-01-06T04:40:46.618Z,0.84
2023-01-06T04:41:46.554Z,0.83
2023-01-06T04:42:46.538Z,0.74
2023-01-06T04:43:46.486Z,0.57
2023-01-06T04:44:46.451Z,0.65
2023-01-06T04:45:46.442Z,0.67
2023-01-06T04:46:46.459Z,0.67
2023-01-06T04:47:46.373Z,0.88
2023-01-06T04:48:46.291Z,0.68
2023-01-06T04:49:46.251Z,0.69
2023-01-06T04:50:46.179Z,0.83
2023-01-06T04:51:46.144Z,0.67
2023-01-06T04:52:46.104Z,0.69
2023-01-06T04:53:46.077Z,0.72
2023-01-06T04:54:45.996Z,0.69
2023-01-06T04:55:45.960Z,0.68
2023-01-06T04:56:45.915Z,0.57
2023-01-06T04:57:45.910Z,0.65
2023-01-06T04:58:45.920Z,0.69
2023-01-06T05:00:45.906Z,0.56
2023-01-06T05:01:45.765Z,0.63
2023-01-06T05:02:45.760Z,0.86
2023-01-06T05:03:45.665Z,0.87
2023-01-06T05:04:47.888Z,0.66
2023-01-06T05:05:45.763Z,0.87
2023-01-06T05:06:45.678Z,0.96
2023-01-06T05:07:45.626Z,0.81
2023-01-06T05:08:45.579Z,0.66
2023-01-06T05:09:45.523Z,0.65
2023-01-06T05:10:45.478Z,0.81
2023-01-06T05:11:45.442Z,0.62
2023-01-06T05:12:45.453Z,0.60
2023-01-06T05:13:45.497Z,0.55
2023-01-06T05:14:45.488Z,0.65
2023-01-06T05:15:45.514Z,0.79
2023-01-06T05:16:45.557Z,0.70
2023-01-06T05:17:45.571Z,0.72
2023-01-06T05:18:45.691Z,0.78
2023-01-06T05:19:45.592Z,0.87
2023-01-06T05:20:45.596Z,0.71
2023-01-06T05:21:45.628Z,0.93
2023-01-06T05:22:45.641Z,0.73
2023-01-06T06:55:47.221Z,2.44
2023-01-06T06:56:47.161Z,2.57
2023-01-06T06:57:47.151Z,3.10
2023-01-06T06:58:47.128Z,3.02
2023-01-06T06:59:47.116Z,2.78
2023-01-06T07:00:47.045Z,2.76
2023-01-06T07:01:47.198Z,2.99
2023-01-06T07:02:46.985Z,3.11
2023-01-06T07:03:46.959Z,2.11
2023-01-06T07:04:46.969Z,2.10
2023-01-06T07:05:46.885Z,2.74
2023-01-06T07:06:46.929Z,2.45
2023-01-06T07:07:46.820Z,2.61
2023-01-06T07:08:46.785Z,2.32
2023-01-06T07:09:46.758Z,2.23
2023-01-06T07:10:46.813Z,2.82
2023-01-06T07:11:46.678Z,2.60
2023-01-06T07:12:46.633Z,2.41
2023-01-06T07:13:46.604Z,2.50
2023-01-06T07:14:46.574Z,2.36
2023-01-06T07:15:46.572Z,2.50
2023-01-06T07:16:46.502Z,2.52
2023-01-06T07:17:46.465Z,2.15
2023-01-06T07:18:46.436Z,2.30
2023-01-06T07:19:46.403Z,2.83
2023-01-06T07:20:46.368Z,2.75
2023-01-06T07:21:46.337Z,2.54
2023-01-06T07:22:46.303Z,2.68
2023-01-06T07:23:46.282Z,2.50
2023-01-06T07:24:46.232Z,2.73
2023-01-06T07:25:46.175Z,2.15
2023-01-06T07:26:46.235Z,2.87
2023-01-06T07:27:46.109Z,2.18
2023-01-06T07:28:46.076Z,2.30
2023-01-06T07:29:46.051Z,2.49
2023-01-06T07:30:46.040Z,2.96
2023-01-06T07:31:46.053Z,2.44
2023-01-06T07:32:46.006Z,2.48
2023-01-06T07:33:46.052Z,2.70
2023-01-06T07:34:46.032Z,2.53
2023-01-06T07:35:45.879Z,2.75
2023-01-06T07:36:45.813Z,2.69
2023-01-06T07:37:45.800Z,3.07
2023-01-06T07:38:45.717Z,2.69
2023-01-06T07:39:45.693Z,2.56
2023-01-06T07:40:45.620Z,3.20
2023-01-06T07:41:45.589Z,3.14
2023-01-06T07:42:45.624Z,2.87
2023-01-06T07:43:45.518Z,3.26
2023-01-06T07:44:45.491Z,3.38
2023-01-06T07:45:45.470Z,3.84
2023-01-06T07:46:45.401Z,3.51
2023-01-06T07:47:45.340Z,3.53
2023-01-06T07:48:45.375Z,3.35
2023-01-06T07:49:45.318Z,3.85
2023-01-06T07:50:45.324Z,2.98
2023-01-06T07:51:45.371Z,3.25
2023-01-06T07:52:45.226Z,3.34
2023-01-06T07:53:45.133Z,3.44
2023-01-06T07:54:45.072Z,3.31
2023-01-06T07:55:45.038Z,3.54
2023-01-06T07:56:45.001Z,3.61
2023-01-06T07:57:44.971Z,3.92
2023-01-06T07:58:45.019Z,3.75
2023-01-06T07:59:44.902Z,3.87
2023-01-06T08:00:44.879Z,4.52
2023-01-06T08:01:44.916Z,4.19
2023-01-06T08:02:44.818Z,3.53
2023-01-06T08:03:44.764Z,4.65
2023-01-06T08:04:44.733Z,4.05
2023-01-06T08:05:44.694Z,3.97
2023-01-06T08:06:44.653Z,3.91
2023-01-06T08:07:44.605Z,3.87
2023-01-06T08:08:44.567Z,4.08
2023-01-06T08:09:44.523Z,3.61
2023-01-06T08:10:44.476Z,3.92
2023-01-06T08:11:44.438Z,3.73
2023-01-06T08:12:44.409Z,4.32
2023-01-06T08:13:44.376Z,3.94
2023-01-06T08:14:44.441Z,3.95
2023-01-06T08:15:44.328Z,4.09
2023-01-06T08:16:44.242Z,4.27
2023-01-06T08:17:44.217Z,3.46
2023-01-06T08:18:44.174Z,3.76
2023-01-06T08:19:44.147Z,4.21
2023-01-06T08:20:44.114Z,3.66
2023-01-06T08:21:44.057Z,3.69
2023-01-06T08:22:44.019Z,3.87
2023-01-06T08:23:44.005Z,3.47
2023-01-06T08:24:43.949Z,3.53
2023-01-06T08:25:43.912Z,3.86
2023-01-06T08:26:43.872Z,3.42
2023-01-06T08:27:43.834Z,4.15
2023-01-06T08:28:43.815Z,3.59
2023-01-06T08:29:43.755Z,3.47
2023-01-06T08:30:43.862Z,4.12
2023-01-06T08:31:43.690Z,4.02
2023-01-06T08:32:43.654Z,3.99
2023-01-06T08:33:43.631Z,3.51
2023-01-06T08:34:43.568Z,4.19
2023-01-06T08:35:43.521Z,3.72
2023-01-06T08:36:43.488Z,3.32
2023-01-06T08:37:43.468Z,4.35
2023-01-06T08:38:43.394Z,3.88
2023-01-06T08:39:43.358Z,3.79
2023-01-06T08:40:43.327Z,3.55
2023-01-06T08:41:43.299Z,3.83
2023-01-06T08:42:43.263Z,3.85
2023-01-06T08:43:44.901Z,3.81
2023-01-06T08:44:43.200Z,3.39
2023-01-06T08:45:43.165Z,3.16
2023-01-06T08:46:43.239Z,3.28
2023-01-06T08:47:43.088Z,3.09
2023-01-06T08:48:43.114Z,3.30
2023-01-06T08:49:43.027Z,3.76
2023-01-06T08:50:43.009Z,3.65
2023-01-06T08:51:42.957Z,3.27
2023-01-06T08:52:42.972Z,3.52
2023-01-06T08:53:43.007Z,3.45
2023-01-06T08:54:43.016Z,3.22
2023-01-06T08:55:43.048Z,3.53
2023-01-06T08:56:43.078Z,3.38
2023-01-06T08:57:43.113Z,3.70
2023-01-06T08:58:43.136Z,2.95
2023-01-06T08:59:43.149Z,3.59
2023-01-06T09:00:43.168Z,3.35
2023-01-06T09:01:43.179Z,3.16
2023-01-06T09:02:43.178Z,3.20
2023-01-06T09:03:43.052Z,3.33
2023-01-06T09:04:43.055Z,3.55
2023-01-06T09:05:42.986Z,3.79
2023-01-06T09:06:42.951Z,3.25
2023-01-06T10:53:37.836Z,2.40
2023-01-06T10:54:37.856Z,2.56
2023-01-06T10:55:37.803Z,2.55
2023-01-06T10:56:37.666Z,2.07
2023-01-06T10:57:37.610Z,2.84
2023-01-06T10:58:37.590Z,2.48
2023-01-06T10:59:37.512Z,2.95
2023-01-06T11:00:37.525Z,2.66
2023-01-06T11:01:37.631Z,2.52
2023-01-06T11:02:37.456Z,2.45
2023-01-06T11:03:37.398Z,2.47
2023-01-06T11:04:37.253Z,2.43
2023-01-06T11:05:37.195Z,2.62
2023-01-06T11:06:37.132Z,2.36
2023-01-06T11:07:37.103Z,2.32
2023-01-06T11:08:37.015Z,2.28
2023-01-06T11:09:36.950Z,2.50
2023-01-06T11:10:36.985Z,2.58
2023-01-06T11:11:36.846Z,2.51
2023-01-06T11:12:36.780Z,2.97
2023-01-06T11:13:36.715Z,2.38
2023-01-06T11:14:36.658Z,2.70
2023-01-06T11:15:36.590Z,2.67
2023-01-06T11:16:36.590Z,2.92
2023-01-06T11:17:36.457Z,2.53
2023-01-06T11:18:36.389Z,2.78
2023-01-06T11:19:36.331Z,2.42
2023-01-06T11:20:36.284Z,2.73
2023-01-06T11:21:36.219Z,2.56
2023-01-06T11:22:36.211Z,2.36
2023-01-06T11:23:36.170Z,2.74
2023-01-06T11:24:36.040Z,2.03
2023-01-06T11:25:35.953Z,1.97
2023-01-06T11:26:35.981Z,2.63
2023-01-06T11:27:35.816Z,2.42
2023-01-06T11:28:35.761Z,2.34
2023-01-06T11:29:35.707Z,2.24
2023-01-06T11:30:35.634Z,2.49
2023-01-06T11:31:35.642Z,2.71
2023-01-06T11:32:35.511Z,2.46
2023-01-06T11:33:35.447Z,2.09
2023-01-06T11:34:35.465Z,2.27
2023-01-06T11:35:35.457Z,2.13
2023-01-06T11:36:35.420Z,2.43
2023-01-06T11:37:35.230Z,2.12
2023-01-06T11:38:35.175Z,2.15
2023-01-06T11:39:35.118Z,2.21
2023-01-06T11:40:35.068Z,2.24
2023-01-06T11:41:35.018Z,2.38
2023-01-06T11:42:35.044Z,2.14
2023-01-06T11:43:34.891Z,2.48
2023-01-06T11:44:34.855Z,2.49
2023-01-06T11:45:34.801Z,2.16
2023-01-06T11:46:34.718Z,1.99
2023-01-06T11:47:34.648Z,2.38
2023-01-06T11:48:34.591Z,1.95
2023-01-06T11:49:34.526Z,2.11
2023-01-06T11:50:34.454Z,2.11
2023-01-06T11:51:34.391Z,1.97
2023-01-06T11:52:34.325Z,1.87
2023-01-06T11:53:34.289Z,2.23
2023-01-06T11:54:34.199Z,2.20
2023-01-06T11:55:34.128Z,2.16
2023-01-06T11:56:34.076Z,2.13
2023-01-06T11:57:33.987Z,2.19
2023-01-06T11:58:34.011Z,2.13
2023-01-06T11:59:33.858Z,1.74
2023-01-06T12:00:33.799Z,2.39
2023-01-06T12:01:33.747Z,1.89
2023-01-06T12:02:33.649Z,1.99
2023-01-06T12:03:33.649Z,1.80
2023-01-06T12:04:33.508Z,2.06
2023-01-06T12:05:33.423Z,2.09
2023-01-06T12:06:33.353Z,2.14
2023-01-06T12:07:33.284Z,2.06
2023-01-06T12:08:33.202Z,1.84
2023-01-06T12:09:33.132Z,2.07
2023-01-06T12:10:33.051Z,2.03
2023-01-06T12:11:32.980Z,2.34
2023-01-06T12:55:28.961Z,1.91
2023-01-06T12:56:28.896Z,1.75
2023-01-06T12:57:28.807Z,1.58
2023-01-06T12:58:28.738Z,1.96
2023-01-06T12:59:28.633Z,2.19
2023-01-06T13:00:28.567Z,1.42
2023-01-06T13:01:28.560Z,1.65
2023-01-06T13:02:28.499Z,1.79
2023-01-06T13:03:28.335Z,1.90
2023-01-06T13:04:28.417Z,2.02
2023-01-06T13:05:28.186Z,1.63
2023-01-06T13:06:28.118Z,1.64
2023-01-06T13:07:28.031Z,1.52
2023-01-06T13:08:27.985Z,1.58
2023-01-06T13:09:27.891Z,1.81
2023-01-06T13:10:27.797Z,2.11
2023-01-06T13:11:27.706Z,1.62
2023-01-06T13:12:27.616Z,1.49
2023-01-06T13:13:27.551Z,1.60
2023-01-06T13:14:27.455Z,1.96
2023-01-06T13:15:27.373Z,1.62
2023-01-06T13:16:27.330Z,1.83
2023-01-06T13:17:27.209Z,1.65
2023-01-06T13:18:27.212Z,1.50
2023-01-06T13:19:27.041Z,1.41
2023-01-06T13:20:26.949Z,1.41
2023-01-06T13:21:26.868Z,1.71
2023-01-06T13:22:26.784Z,1.84
2023-01-06T13:23:27.186Z,1.82
2023-01-06T13:24:26.592Z,1.56
2023-01-06T13:25:26.528Z,1.45
2023-01-06T13:26:26.387Z,1.64
2023-01-06T13:27:26.285Z,1.35
2023-01-06T13:28:26.227Z,1.74
2023-01-06T13:29:26.060Z,1.56
2023-01-06T13:30:25.921Z,1.43
2023-01-06T13:31:25.757Z,1.47
2023-01-06T13:32:26.492Z,1.83
2023-01-06T13:33:25.547Z,1.43
2023-01-06T13:34:25.389Z,1.72
2023-01-06T13:35:25.176Z,1.77
2023-01-06T13:36:25.000Z,1.79
2023-01-06T13:37:24.839Z,1.63
2023-01-06T13:38:24.673Z,1.56
2023-01-06T13:39:24.527Z,1.39
2023-01-06T13:40:24.343Z,1.67
2023-01-06T13:41:24.185Z,1.29
2023-01-06T13:42:24.013Z,1.93
2023-01-06T13:43:23.853Z,1.31
2023-01-06T13:44:23.679Z,1.84
2023-01-06T13:45:23.530Z,1.48
2023-01-06T13:46:23.369Z,1.42
2023-01-06T13:47:23.177Z,1.78
2023-01-06T13:48:23.013Z,1.74
2023-01-06T16:03:16.580Z,3.09
2023-01-06T16:04:16.582Z,2.47
2023-01-06T16:05:16.573Z,2.27
2023-01-06T16:06:16.581Z,2.70
2023-01-06T16:07:16.594Z,2.60
2023-01-06T16:08:16.596Z,2.83
2023-01-06T16:09:16.595Z,3.00
2023-01-06T16:10:16.614Z,3.22
2023-01-06T16:11:16.619Z,2.69
2023-01-06T16:12:16.606Z,3.27
2023-01-06T16:13:16.607Z,2.25
2023-01-06T16:14:16.706Z,2.64
2023-01-06T16:15:16.611Z,2.51
2023-01-06T16:16:16.699Z,2.72
2023-01-06T16:17:16.631Z,2.83
2023-01-06T16:18:16.644Z,2.57
2023-01-06T16:19:16.632Z,2.73
2023-01-06T16:20:16.638Z,2.69
2023-01-06T16:21:16.653Z,2.77
2023-01-06T16:22:16.679Z,3.36
2023-01-06T16:23:16.681Z,2.72
2023-01-06T16:24:16.672Z,2.69
2023-01-06T16:25:16.677Z,2.21
2023-01-06T16:26:16.681Z,3.06
2023-01-06T16:27:16.689Z,2.53
2023-01-06T16:28:16.702Z,2.19
2023-01-06T16:29:16.713Z,2.36
2023-01-06T16:30:16.805Z,2.47
2023-01-06T16:31:16.793Z,2.21
2023-01-06T16:32:16.756Z,2.82
2023-01-06T16:33:16.739Z,2.96
2023-01-06T16:34:16.770Z,2.75
2023-01-06T16:35:16.769Z,2.49
2023-01-06T16:36:16.794Z,2.99
2023-01-06T16:37:16.793Z,3.22
2023-01-06T16:38:16.786Z,3.06
2023-01-06T16:39:16.813Z,3.00
2023-01-06T16:40:16.834Z,2.57
2023-01-06T16:41:16.823Z,2.64
2023-01-06T16:42:16.820Z,2.53
2023-01-06T16:43:16.822Z,2.53
2023-01-06T16:44:16.813Z,2.63
2023-01-06T16:45:16.832Z,2.97
2023-01-06T16:46:16.952Z,2.77
2023-01-06T16:47:16.831Z,3.05
2023-01-06T16:48:16.874Z,2.69
2023-01-06T16:49:16.850Z,2.42
2023-01-06T16:50:16.858Z,2.84
2023-01-06T16:51:18.649Z,3.03
2023-01-06T16:52:16.860Z,3.16
2023-01-06T16:53:16.756Z,2.32
2023-01-06T16:54:16.708Z,2.75
2023-01-06T16:55:16.671Z,2.28
2023-01-06T16:56:16.608Z,2.93
2023-01-06T16:57:16.607Z,2.50
2023-01-06T16:58:16.568Z,3.20
2023-01-06T16:59:16.568Z,3.33
2023-01-06T17:00:16.579Z,2.69
2023-01-06T17:01:16.641Z,2.80
2023-01-06T17:02:16.809Z,2.62
2023-01-06T17:03:16.585Z,2.61
2023-01-06T17:04:16.638Z,3.26
2023-01-06T17:05:16.604Z,3.05
2023-01-06T17:06:16.620Z,2.59
2023-01-06T17:07:16.627Z,2.53
2023-01-06T17:08:16.631Z,3.04
2023-01-06T17:09:16.640Z,3.22
2023-01-06T17:10:16.657Z,2.69
2023-01-06T17:11:16.651Z,2.78
2023-01-06T17:12:16.663Z,2.76
2023-01-06T17:13:16.689Z,2.61
2023-01-06T17:14:16.692Z,2.78
2023-01-06T17:15:16.691Z,2.73
2023-01-06T17:16:16.885Z,2.72
2023-01-06T17:17:16.708Z,2.82
2023-01-06T17:18:16.837Z,2.51
2023-01-06T17:19:16.692Z,2.73
2023-01-06T17:20:16.630Z,2.80
2023-01-06T17:21:16.571Z,3.19
2023-01-06T17:22:16.533Z,2.62
2023-01-06T17:23:16.471Z,2.76
2023-01-06T17:24:16.464Z,2.98
2023-01-06T17:25:16.379Z,3.19
2023-01-06T17:26:16.427Z,3.49
2023-01-06T17:27:16.400Z,3.61
2023-01-06T17:28:16.394Z,3.18
2023-01-06T17:29:16.387Z,2.31
2023-01-06T17:30:16.376Z,2.93
2023-01-06T17:31:16.509Z,3.30
2023-01-06T17:32:16.410Z,3.20
2023-01-06T17:33:16.375Z,3.22
2023-01-06T17:34:16.506Z,2.86
2023-01-06T17:35:16.422Z,3.17
2023-01-06T17:36:16.363Z,3.04
2023-01-06T17:37:16.432Z,3.35
2023-01-06T17:38:16.397Z,2.91
2023-01-06T17:39:16.407Z,2.77
2023-01-06T17:40:16.459Z,2.90
2023-01-06T17:41:17.166Z,2.88
2023-01-06T17:42:16.455Z,3.04
2023-01-06T17:43:16.306Z,2.71
2023-01-06T17:44:16.315Z,2.95
2023-01-06T17:45:16.171Z,2.96
2023-01-06T17:46:16.151Z,2.87
2023-01-06T17:47:16.084Z,3.15
2023-01-06T17:48:16.093Z,3.27
2023-01-06T17:49:16.102Z,3.38
2023-01-06T17:50:16.186Z,3.45
2023-01-06T17:51:16.104Z,3.16
2023-01-06T17:52:16.114Z,3.11
2023-01-06T17:53:16.123Z,2.91
2023-01-06T17:54:16.132Z,2.91
2023-01-06T17:55:16.128Z,2.81
2023-01-06T17:56:16.143Z,2.98
2023-01-06T17:57:16.146Z,3.39
2023-01-06T17:58:16.166Z,3.03
2023-01-06T17:59:16.155Z,3.54
2023-01-06T18:00:16.167Z,3.23
2023-01-06T18:01:16.237Z,3.28
2023-01-06T18:02:16.187Z,2.88
2023-01-06T18:03:16.191Z,3.20
2023-01-06T18:04:16.342Z,3.57
2023-01-06T18:05:16.203Z,3.37
2023-01-06T18:06:16.302Z,3.14
2023-01-06T18:07:16.269Z,3.93
2023-01-06T18:08:16.341Z,3.48
2023-01-06T18:09:16.295Z,3.74
2023-01-06T18:10:16.255Z,4.04
2023-01-06T18:11:16.268Z,4.14
2023-01-06T18:12:16.285Z,3.85
2023-01-06T18:13:17.178Z,4.13
2023-01-06T18:14:16.208Z,3.94
2023-01-06T18:15:16.152Z,3.80
2023-01-06T18:16:16.160Z,4.25
2023-01-06T18:17:16.081Z,4.03
2023-01-06T18:18:16.031Z,4.29
2023-01-06T18:19:15.998Z,4.52
2023-01-06T18:20:15.943Z,4.36
2023-01-06T18:21:15.897Z,4.61
2023-01-06T18:22:15.996Z,4.53
2023-01-06T18:23:15.914Z,4.55
2023-01-06T18:24:15.927Z,4.76
2023-01-06T18:25:15.949Z,4.86
2023-01-06T18:26:15.951Z,4.33
2023-01-06T18:27:15.949Z,4.03
2023-01-06T18:28:15.958Z,4.52
2023-01-06T18:29:15.981Z,4.39
2023-01-06T18:30:15.992Z,3.65
2023-01-06T18:31:16.069Z,4.27
2023-01-06T18:32:15.998Z,4.50
2023-01-06T18:33:16.004Z,3.84
2023-01-06T18:34:16.026Z,4.23
2023-01-06T18:35:16.024Z,4.77
2023-01-06T18:36:16.021Z,4.27
2023-01-06T18:37:16.041Z,4.80
2023-01-06T18:38:16.127Z,4.44
2023-01-06T18:39:16.039Z,4.13
2023-01-06T18:40:16.044Z,4.90
2023-01-06T18:41:16.046Z,4.69
2023-01-06T18:42:16.059Z,3.82
2023-01-06T18:43:16.063Z,4.14
2023-01-06T18:44:16.068Z,4.59
2023-01-06T18:45:16.087Z,4.29
2023-01-06T18:46:16.142Z,4.53
2023-01-06T18:47:16.095Z,4.10
2023-01-06T18:48:16.100Z,4.48
2023-01-06T18:49:16.104Z,5.82
2023-01-06T18:50:16.104Z,4.37
2023-01-06T18:51:16.105Z,4.30
2023-01-06T18:52:16.118Z,4.21
2023-01-06T18:53:16.133Z,4.59
2023-01-06T18:54:16.232Z,4.05
2023-01-06T18:55:16.171Z,4.42
2023-01-06T18:56:16.181Z,4.58
2023-01-06T18:57:16.179Z,4.63
2023-01-06T18:58:16.189Z,4.42
2023-01-06T18:59:16.206Z,4.34
2023-01-06T19:00:16.261Z,4.29
2023-01-06T19:01:16.349Z,4.48
2023-01-06T19:02:16.249Z,4.43
2023-01-06T19:03:16.256Z,4.37
2023-01-06T19:04:16.329Z,4.32
2023-01-06T19:05:16.305Z,4.73
2023-01-06T19:06:16.326Z,4.48
2023-01-06T19:07:16.318Z,3.78
2023-01-06T19:08:16.467Z,4.94
2023-01-06T19:09:16.340Z,4.12
2023-01-06T19:10:16.450Z,4.36
2023-01-06T19:11:16.483Z,4.22
2023-01-06T19:12:16.462Z,4.47
2023-01-06T19:13:17.208Z,4.43
2023-01-06T19:14:16.342Z,4.12
2023-01-06T19:15:16.335Z,4.31
2023-01-06T19:16:16.309Z,4.25
2023-01-06T19:17:16.198Z,4.64
2023-01-06T19:18:16.139Z,4.23
2023-01-06T19:19:16.088Z,3.78
2023-01-06T19:20:16.039Z,4.12
2023-01-06T19:21:16.016Z,3.90
2023-01-06T19:22:16.023Z,3.75
2023-01-06T19:23:16.017Z,4.27
2023-01-06T19:24:16.044Z,4.02
2023-01-06T19:25:16.057Z,4.34
2023-01-06T19:26:16.149Z,4.05
2023-01-06T19:27:16.086Z,4.04
2023-01-06T19:28:16.098Z,4.12
2023-01-06T19:29:16.122Z,3.31
2023-01-06T19:30:16.158Z,3.53
2023-01-06T19:31:16.218Z,4.31
2023-01-06T19:32:16.189Z,4.64
2023-01-06T19:33:16.194Z,4.15
2023-01-06T19:34:16.208Z,4.16
2023-01-06T19:35:16.218Z,4.82
2023-01-06T19:36:16.238Z,4.70
2023-01-06T19:37:16.253Z,4.13
2023-01-06T19:38:16.278Z,4.07
2023-01-06T19:39:16.343Z,4.22
2023-01-06T19:40:16.311Z,4.54
2023-01-06T19:41:16.357Z,4.02
2023-01-06T19:42:16.404Z,4.13
2023-01-06T19:43:16.403Z,4.17
2023-01-06T19:44:16.373Z,3.58
2023-01-06T19:45:16.418Z,3.77
2023-01-06T19:46:16.495Z,4.47
2023-01-06T19:47:16.473Z,3.80
2023-01-06T19:48:16.436Z,3.57
2023-01-06T19:49:16.492Z,3.63
2023-01-06T19:50:16.507Z,3.56
2023-01-06T19:51:16.751Z,4.07
2023-01-06T19:52:16.534Z,4.43
2023-01-06T19:54:16.491Z,4.36
2023-01-06T19:55:16.425Z,4.43
2023-01-06T19:56:16.467Z,3.79
2023-01-06T19:57:16.439Z,3.37
2023-01-06T19:58:16.374Z,3.53
2023-01-06T19:59:16.246Z,3.73
2023-01-06T20:00:16.200Z,3.36
2023-01-06T20:01:16.317Z,3.84
2023-01-06T20:02:16.404Z,4.30
2023-01-06T20:03:16.224Z,4.22
2023-01-06T20:04:16.248Z,3.47
2023-01-06T20:05:16.310Z,3.37
2023-01-06T20:06:16.319Z,3.40
2023-01-06T20:07:16.344Z,3.75
2023-01-06T20:08:16.331Z,3.79
2023-01-06T20:09:16.330Z,3.63
2023-01-06T20:39:16.262Z,3.05
2023-01-06T20:41:16.176Z,3.00
2023-01-06T20:42:16.112Z,2.57
2023-01-06T20:43:16.082Z,2.72
2023-01-06T20:44:16.037Z,3.55
2023-01-06T20:45:15.993Z,3.43
2023-01-06T20:46:16.140Z,3.10
2023-01-06T20:47:15.976Z,2.74
2023-01-06T20:48:16.757Z,3.45
2023-01-06T20:49:15.895Z,3.28
2023-01-06T20:50:15.765Z,3.30
2023-01-06T20:51:15.713Z,2.98
2023-01-06T20:52:15.642Z,2.93
2023-01-06T20:53:15.609Z,2.44
2023-01-06T20:54:15.547Z,2.87
2023-01-06T20:55:15.533Z,2.87
2023-01-06T20:56:15.478Z,2.71
2023-01-06T20:57:15.438Z,3.13
2023-01-06T20:58:15.417Z,2.92
2023-01-06T20:59:15.346Z,2.91
2023-01-06T21:00:15.313Z,3.26
2023-01-06T21:01:15.463Z,3.19
2023-01-06T21:02:15.462Z,3.06
2023-01-06T21:03:15.182Z,3.37
2023-01-06T21:04:15.144Z,3.19
2023-01-06T21:05:15.130Z,3.37
2023-01-06T21:06:15.085Z,3.41
2023-01-06T21:07:15.080Z,3.18
2023-01-06T21:08:15.029Z,3.71
2023-01-06T21:09:14.997Z,3.28
2023-01-06T21:10:14.971Z,3.30
2023-01-06T21:11:14.963Z,3.29
2023-01-06T21:12:14.921Z,3.36
2023-01-06T21:13:14.889Z,3.39
2023-01-06T21:14:14.855Z,3.05
2023-01-06T21:15:14.828Z,2.94
2023-01-06T21:16:14.877Z,3.36
2023-01-06T21:17:14.780Z,2.99
2023-01-06T21:18:14.846Z,3.40
2023-01-06T21:19:15.249Z,2.82
2023-01-06T21:20:14.689Z,3.06
2023-01-06T21:21:14.653Z,3.50
2023-01-06T21:22:14.622Z,3.19
2023-01-06T21:23:14.588Z,3.36
2023-01-06T21:24:14.569Z,3.25
2023-01-06T21:25:14.564Z,2.90
2023-01-06T21:26:14.499Z,3.75
2023-01-06T21:27:14.465Z,2.92
2023-01-06T21:28:14.435Z,2.97
2023-01-06T21:29:14.418Z,3.32
2023-01-06T21:30:14.356Z,3.28
2023-01-06T21:31:14.387Z,2.91
2023-01-06T21:32:14.302Z,3.01
2023-01-06T21:33:14.273Z,3.77
2023-01-06T21:34:14.334Z,3.13
2023-01-06T21:35:14.215Z,3.02
2023-01-06T21:36:14.187Z,2.88
2023-01-06T21:37:14.158Z,3.26
2023-01-06T21:38:14.123Z,2.72
2023-01-06T21:39:14.109Z,2.92
2023-01-06T21:40:14.059Z,3.13
2023-01-06T21:41:14.033Z,3.12
2023-01-06T21:42:13.984Z,2.96
2023-01-06T21:43:13.960Z,3.47
2023-01-06T21:44:13.920Z,3.46
2023-01-06T21:45:13.887Z,3.35
2023-01-06T21:46:13.944Z,3.14
2023-01-06T21:47:13.817Z,3.28
2023-01-06T21:48:13.789Z,3.28
2023-01-06T21:49:13.740Z,3.61
2023-01-06T21:50:13.814Z,3.08
2023-01-06T21:51:13.664Z,3.47
2023-01-06T21:52:13.625Z,3.49
2023-01-06T21:53:13.614Z,3.48
2023-01-06T21:54:13.560Z,3.43
2023-01-06T21:55:13.525Z,3.30
2023-01-06T21:56:13.507Z,3.63
2023-01-06T21:57:13.446Z,2.85
2023-01-06T21:58:13.407Z,3.13
2023-01-06T21:59:13.378Z,3.21
2023-01-06T22:00:13.345Z,2.77
2023-01-06T22:01:13.468Z,3.23
2023-01-06T22:02:13.414Z,2.92
2023-01-06T22:03:13.327Z,2.84
2023-01-06T22:04:13.173Z,3.15
2023-01-06T22:05:13.136Z,3.89
2023-01-06T22:06:13.173Z,3.48
2023-01-06T22:07:13.048Z,2.99
2023-01-06T22:08:13.007Z,3.03
2023-01-06T22:09:12.954Z,2.83
2023-01-06T23:53:08.325Z,2.12
